sensor_id;sensor_type;location;lat;lon;timestamp;temperature;humidity
6662;DHT22;3367;48.714;8.994;2024-03-02T00:01:53;5.50;1.00
6662;DHT22;3367;48.714;8.994;2024-03-02T00:04:20;5.50;1.00
6662;DHT22;3367;48.714;8.994;2024-03-02T00:06:49;5.50;1.00
6662;DHT22;3367;48.714;8.994;2024-03-02T00:09:20;5.40;1.00
6662;DHT22;3367;48.714;8.994;2024-03-02T00:11:51;5.40;1.00
6662;DHT22;3367;48.714;8.994;2024-03-02T00:14:21;5.40;1.00
6662;DHT22;3367;48.714;8.994;2024-03-02T00:16:52;5.40;1.00
6662;DHT22;3367;48.714;8.994;2024-03-02T00:19:21;5.30;1.00
6662;DHT22;3367;48.714;8.994;2024-03-02T00:21:51;5.40;1.00
6662;DHT22;3367;48.714;8.994;2024-03-02T00:24:25;5.40;1.00
6662;DHT22;3367;48.714;8.994;2024-03-02T00:26:56;5.40;1.00
6662;DHT22;3367;48.714;8.994;2024-03-02T00:29:35;5.30;1.00
6662;DHT22;3367;48.714;8.994;2024-03-02T00:32:09;5.30;1.00
6662;DHT22;3367;48.714;8.994;2024-03-02T00:34:38;5.30;1.00
6662;DHT22;3367;48.714;8.994;2024-03-02T00:37:08;5.30;1.00
6662;DHT22;3367;48.714;8.994;2024-03-02T00:39:41;5.30;1.00
6662;DHT22;3367;48.714;8.994;2024-03-02T00:42:10;5.30;1.00
6662;DHT22;3367;48.714;8.994;2024-03-02T00:44:38;5.40;1.00
6662;DHT22;3367;48.714;8.994;2024-03-02T00:47:05;5.50;1.00
6662;DHT22;3367;48.714;8.994;2024-03-02T00:49:47;5.50;1.00
6662;DHT22;3367;48.714;8.994;2024-03-02T00:52:14;5.50;1.00
6662;DHT22;3367;48.714;8.994;2024-03-02T00:54:43;5.50;1.00
6662;DHT22;3367;48.714;8.994;2024-03-02T00:57:22;5.60;1.00
6662;DHT22;3367;48.714;8.994;2024-03-02T00:59:51;5.60;1.00
6662;DHT22;3367;48.714;8.994;2024-03-02T01:02:18;5.70;1.00
6662;DHT22;3367;48.714;8.994;2024-03-02T01:04:48;5.70;99.90
6662;DHT22;3367;48.714;8.994;2024-03-02T01:07:15;5.70;99.90
6662;DHT22;3367;48.714;8.994;2024-03-02T01:09:44;5.70;99.90
6662;DHT22;3367;48.714;8.994;2024-03-02T01:12:11;5.70;99.90
6662;DHT22;3367;48.714;8.994;2024-03-02T01:14:42;5.70;99.90
6662;DHT22;3367;48.714;8.994;2024-03-02T01:17:09;5.70;99.90
6662;DHT22;3367;48.714;8.994;2024-03-02T01:19:35;5.70;99.90
6662;DHT22;3367;48.714;8.994;2024-03-02T01:22:06;5.70;99.90
6662;DHT22;3367;48.714;8.994;2024-03-02T01:24:33;5.70;99.90
6662;DHT22;3367;48.714;8.994;2024-03-02T01:26:59;5.70;99.90
6662;DHT22;3367;48.714;8.994;2024-03-02T01:29:31;5.60;99.90
6662;DHT22;3367;48.714;8.994;2024-03-02T01:32:03;5.50;99.90
6662;DHT22;3367;48.714;8.994;2024-03-02T01:34:29;5.50;1.00
6662;DHT22;3367;48.714;8.994;2024-03-02T01:36:56;5.50;1.00
6662;DHT22;3367;48.714;8.994;2024-03-02T01:39:23;5.50;1.00
6662;DHT22;3367;48.714;8.994;2024-03-02T01:41:50;5.50;1.00
6662;DHT22;3367;48.714;8.994;2024-03-02T01:44:16;5.50;1.00
6662;DHT22;3367;48.714;8.994;2024-03-02T01:46:45;5.50;1.00
6662;DHT22;3367;48.714;8.994;2024-03-02T01:49:13;5.50;1.00
6662;DHT22;3367;48.714;8.994;2024-03-02T01:51:41;5.40;1.00
6662;DHT22;3367;48.714;8.994;2024-03-02T01:54:07;5.30;1.00
6662;DHT22;3367;48.714;8.994;2024-03-02T01:56:34;5.30;1.00
6662;DHT22;3367;48.714;8.994;2024-03-02T01:59:01;5.20;1.00
6662;DHT22;3367;48.714;8.994;2024-03-02T02:01:28;5.20;1.00
6662;DHT22;3367;48.714;8.994;2024-03-02T02:03:59;5.00;1.00
6662;DHT22;3367;48.714;8.994;2024-03-02T02:06:27;5.00;1.00
6662;DHT22;3367;48.714;8.994;2024-03-02T02:08:57;4.90;1.00
6662;DHT22;3367;48.714;8.994;2024-03-02T02:11:26;4.80;1.00
6662;DHT22;3367;48.714;8.994;2024-03-02T02:13:56;4.70;1.00
6662;DHT22;3367;48.714;8.994;2024-03-02T02:16:35;4.70;1.00
6662;DHT22;3367;48.714;8.994;2024-03-02T02:19:07;4.60;1.00
6662;DHT22;3367;48.714;8.994;2024-03-02T02:21:36;4.60;99.90
6662;DHT22;3367;48.714;8.994;2024-03-02T02:24:05;4.50;99.90
6662;DHT22;3367;48.714;8.994;2024-03-02T02:26:32;4.50;99.90
6662;DHT22;3367;48.714;8.994;2024-03-02T02:28:58;4.40;99.90
6662;DHT22;3367;48.714;8.994;2024-03-02T02:31:25;4.40;99.90
6662;DHT22;3367;48.714;8.994;2024-03-02T02:33:58;4.40;1.00
6662;DHT22;3367;48.714;8.994;2024-03-02T02:36:27;4.30;99.90
6662;DHT22;3367;48.714;8.994;2024-03-02T02:39:00;4.20;99.90
6662;DHT22;3367;48.714;8.994;2024-03-02T02:41:31;4.20;99.90
6662;DHT22;3367;48.714;8.994;2024-03-02T02:44:07;4.10;1.00
6662;DHT22;3367;48.714;8.994;2024-03-02T02:46:36;4.10;1.00
6662;DHT22;3367;48.714;8.994;2024-03-02T02:49:03;4.10;1.00
6662;DHT22;3367;48.714;8.994;2024-03-02T02:51:37;4.10;1.00
6662;DHT22;3367;48.714;8.994;2024-03-02T02:54:07;4.00;1.00
6662;DHT22;3367;48.714;8.994;2024-03-02T02:56:37;4.00;1.00
6662;DHT22;3367;48.714;8.994;2024-03-02T02:59:03;3.90;1.00
6662;DHT22;3367;48.714;8.994;2024-03-02T03:01:33;3.90;1.00
6662;DHT22;3367;48.714;8.994;2024-03-02T03:04:03;3.80;1.00
6662;DHT22;3367;48.714;8.994;2024-03-02T03:06:38;3.70;1.00
6662;DHT22;3367;48.714;8.994;2024-03-02T03:09:04;3.70;1.00
6662;DHT22;3367;48.714;8.994;2024-03-02T03:11:32;3.60;1.00
6662;DHT22;3367;48.714;8.994;2024-03-02T03:14:05;3.50;1.00
6662;DHT22;3367;48.714;8.994;2024-03-02T03:16:34;3.50;1.00
6662;DHT22;3367;48.714;8.994;2024-03-02T03:19:01;3.40;1.00
6662;DHT22;3367;48.714;8.994;2024-03-02T03:21:28;3.30;1.00
6662;DHT22;3367;48.714;8.994;2024-03-02T03:23:55;3.30;1.00
6662;DHT22;3367;48.714;8.994;2024-03-02T03:26:22;3.30;1.00
6662;DHT22;3367;48.714;8.994;2024-03-02T03:28:50;3.20;1.00
6662;DHT22;3367;48.714;8.994;2024-03-02T03:31:19;3.20;1.00
6662;DHT22;3367;48.714;8.994;2024-03-02T03:33:49;3.20;1.00
6662;DHT22;3367;48.714;8.994;2024-03-02T03:36:19;3.10;1.00
6662;DHT22;3367;48.714;8.994;2024-03-02T03:38:51;3.10;1.00
6662;DHT22;3367;48.714;8.994;2024-03-02T03:41:20;3.10;1.00
6662;DHT22;3367;48.714;8.994;2024-03-02T03:43:47;3.10;1.00
6662;DHT22;3367;48.714;8.994;2024-03-02T03:46:23;3.00;1.00
6662;DHT22;3367;48.714;8.994;2024-03-02T03:48:49;3.00;1.00
6662;DHT22;3367;48.714;8.994;2024-03-02T03:51:18;3.00;1.00
6662;DHT22;3367;48.714;8.994;2024-03-02T03:53:48;3.00;43.80
6662;DHT22;3367;48.714;8.994;2024-03-02T03:56:15;3.00;82.20
6662;DHT22;3367;48.714;8.994;2024-03-02T03:58:42;2.90;68.40
6662;DHT22;3367;48.714;8.994;2024-03-02T04:01:11;2.90;99.80
6662;DHT22;3367;48.714;8.994;2024-03-02T04:03:39;2.90;99.60
6662;DHT22;3367;48.714;8.994;2024-03-02T04:06:06;2.90;99.90
6662;DHT22;3367;48.714;8.994;2024-03-02T04:08:33;2.90;99.90
6662;DHT22;3367;48.714;8.994;2024-03-02T04:11:00;2.90;99.90
6662;DHT22;3367;48.714;8.994;2024-03-02T04:13:37;2.90;99.90
6662;DHT22;3367;48.714;8.994;2024-03-02T04:16:07;3.00;99.90
6662;DHT22;3367;48.714;8.994;2024-03-02T04:18:33;3.00;1.00
6662;DHT22;3367;48.714;8.994;2024-03-02T04:21:05;3.00;1.00
6662;DHT22;3367;48.714;8.994;2024-03-02T04:23:31;3.00;1.00
6662;DHT22;3367;48.714;8.994;2024-03-02T04:26:01;2.90;1.00
6662;DHT22;3367;48.714;8.994;2024-03-02T04:28:28;2.90;99.90
6662;DHT22;3367;48.714;8.994;2024-03-02T04:30:55;2.90;99.90
6662;DHT22;3367;48.714;8.994;2024-03-02T04:33:24;2.90;1.00
6662;DHT22;3367;48.714;8.994;2024-03-02T04:35:51;2.90;1.00
6662;DHT22;3367;48.714;8.994;2024-03-02T04:38:22;2.90;1.00
6662;DHT22;3367;48.714;8.994;2024-03-02T04:40:49;2.90;1.00
6662;DHT22;3367;48.714;8.994;2024-03-02T04:43:19;2.90;1.00
6662;DHT22;3367;48.714;8.994;2024-03-02T04:45:46;2.90;1.00
6662;DHT22;3367;48.714;8.994;2024-03-02T04:48:14;2.90;1.00
6662;DHT22;3367;48.714;8.994;2024-03-02T04:50:49;2.90;1.00
6662;DHT22;3367;48.714;8.994;2024-03-02T04:53:15;2.90;1.00
6662;DHT22;3367;48.714;8.994;2024-03-02T04:55:43;3.00;1.00
6662;DHT22;3367;48.714;8.994;2024-03-02T04:58:35;3.00;1.00
6662;DHT22;3367;48.714;8.994;2024-03-02T05:01:02;2.90;1.00
6662;DHT22;3367;48.714;8.994;2024-03-02T05:03:32;3.00;1.00
6662;DHT22;3367;48.714;8.994;2024-03-02T05:06:01;2.90;1.00
6662;DHT22;3367;48.714;8.994;2024-03-02T05:08:28;2.90;1.00
6662;DHT22;3367;48.714;8.994;2024-03-02T05:10:56;2.90;1.00
6662;DHT22;3367;48.714;8.994;2024-03-02T05:13:43;2.90;1.00
6662;DHT22;3367;48.714;8.994;2024-03-02T05:16:10;2.90;1.00
6662;DHT22;3367;48.714;8.994;2024-03-02T05:18:38;2.80;1.00
6662;DHT22;3367;48.714;8.994;2024-03-02T05:21:05;2.70;1.00
6662;DHT22;3367;48.714;8.994;2024-03-02T05:23:32;2.70;1.00
6662;DHT22;3367;48.714;8.994;2024-03-02T05:26:01;2.70;1.00
6662;DHT22;3367;48.714;8.994;2024-03-02T05:28:28;2.60;1.00
6662;DHT22;3367;48.714;8.994;2024-03-02T05:30:57;2.60;1.00
6662;DHT22;3367;48.714;8.994;2024-03-02T05:33:23;2.60;1.00
6662;DHT22;3367;48.714;8.994;2024-03-02T05:35:50;2.60;1.00
6662;DHT22;3367;48.714;8.994;2024-03-02T05:38:17;2.60;1.00
6662;DHT22;3367;48.714;8.994;2024-03-02T05:40:44;2.50;1.00
6662;DHT22;3367;48.714;8.994;2024-03-02T05:43:12;2.50;1.00
6662;DHT22;3367;48.714;8.994;2024-03-02T05:45:39;2.50;1.00
6662;DHT22;3367;48.714;8.994;2024-03-02T05:48:06;2.50;1.00
6662;DHT22;3367;48.714;8.994;2024-03-02T05:50:33;2.50;1.00
6662;DHT22;3367;48.714;8.994;2024-03-02T05:53:00;2.50;1.00
6662;DHT22;3367;48.714;8.994;2024-03-02T05:55:30;2.50;1.00
6662;DHT22;3367;48.714;8.994;2024-03-02T05:57:56;2.50;1.00
6662;DHT22;3367;48.714;8.994;2024-03-02T06:00:56;2.50;1.00
6662;DHT22;3367;48.714;8.994;2024-03-02T06:03:26;2.50;1.00
6662;DHT22;3367;48.714;8.994;2024-03-02T06:05:56;2.50;1.00
6662;DHT22;3367;48.714;8.994;2024-03-02T06:08:23;2.60;1.00
6662;DHT22;3367;48.714;8.994;2024-03-02T06:10:53;2.60;1.00
6662;DHT22;3367;48.714;8.994;2024-03-02T06:13:19;2.60;1.00
6662;DHT22;3367;48.714;8.994;2024-03-02T06:15:48;2.60;1.00
6662;DHT22;3367;48.714;8.994;2024-03-02T06:18:16;2.70;1.00
6662;DHT22;3367;48.714;8.994;2024-03-02T06:20:50;2.70;1.00
6662;DHT22;3367;48.714;8.994;2024-03-02T06:23:20;2.70;1.00
6662;DHT22;3367;48.714;8.994;2024-03-02T06:25:53;2.70;1.00
6662;DHT22;3367;48.714;8.994;2024-03-02T06:28:23;2.80;1.00
6662;DHT22;3367;48.714;8.994;2024-03-02T06:30:57;2.90;1.00
6662;DHT22;3367;48.714;8.994;2024-03-02T06:33:28;2.90;1.00
6662;DHT22;3367;48.714;8.994;2024-03-02T06:35:54;3.00;1.00
6662;DHT22;3367;48.714;8.994;2024-03-02T06:38:21;3.10;1.00
6662;DHT22;3367;48.714;8.994;2024-03-02T06:40:51;3.20;1.00
6662;DHT22;3367;48.714;8.994;2024-03-02T06:43:24;3.20;1.00
6662;DHT22;3367;48.714;8.994;2024-03-02T06:45:53;3.30;1.00
6662;DHT22;3367;48.714;8.994;2024-03-02T06:48:20;3.40;1.00
6662;DHT22;3367;48.714;8.994;2024-03-02T06:50:51;3.50;1.00
6662;DHT22;3367;48.714;8.994;2024-03-02T06:53:18;3.60;1.00
6662;DHT22;3367;48.714;8.994;2024-03-02T06:55:45;3.70;1.00
6662;DHT22;3367;48.714;8.994;2024-03-02T06:58:13;3.90;1.00
6662;DHT22;3367;48.714;8.994;2024-03-02T07:00:40;4.00;1.00
6662;DHT22;3367;48.714;8.994;2024-03-02T07:03:10;4.30;1.00
6662;DHT22;3367;48.714;8.994;2024-03-02T07:05:41;4.70;1.00
6662;DHT22;3367;48.714;8.994;2024-03-02T07:08:09;5.40;1.00
6662;DHT22;3367;48.714;8.994;2024-03-02T07:10:35;5.90;1.00
6662;DHT22;3367;48.714;8.994;2024-03-02T07:13:02;6.20;1.00
6662;DHT22;3367;48.714;8.994;2024-03-02T07:15:29;6.30;1.00
6662;DHT22;3367;48.714;8.994;2024-03-02T07:18:10;6.60;99.90
6662;DHT22;3367;48.714;8.994;2024-03-02T07:20:37;6.50;99.90
6662;DHT22;3367;48.714;8.994;2024-03-02T07:23:04;6.20;42.10
6662;DHT22;3367;48.714;8.994;2024-03-02T07:25:33;5.90;81.80
6662;DHT22;3367;48.714;8.994;2024-03-02T07:28:00;5.80;99.90
6662;DHT22;3367;48.714;8.994;2024-03-02T07:30:26;5.70;99.90
6662;DHT22;3367;48.714;8.994;2024-03-02T07:32:53;5.70;99.90
6662;DHT22;3367;48.714;8.994;2024-03-02T07:35:20;5.70;99.90
6662;DHT22;3367;48.714;8.994;2024-03-02T07:37:50;5.60;99.90
6662;DHT22;3367;48.714;8.994;2024-03-02T07:40:17;5.60;99.90
6662;DHT22;3367;48.714;8.994;2024-03-02T07:42:45;5.50;99.90
6662;DHT22;3367;48.714;8.994;2024-03-02T07:45:12;5.50;1.00
6662;DHT22;3367;48.714;8.994;2024-03-02T07:47:39;5.40;1.00
6662;DHT22;3367;48.714;8.994;2024-03-02T07:50:06;5.30;1.00
6662;DHT22;3367;48.714;8.994;2024-03-02T07:52:33;5.10;1.00
6662;DHT22;3367;48.714;8.994;2024-03-02T07:54:59;5.00;1.00
6662;DHT22;3367;48.714;8.994;2024-03-02T07:57:26;5.00;1.00
6662;DHT22;3367;48.714;8.994;2024-03-02T07:59:54;5.10;1.00
6662;DHT22;3367;48.714;8.994;2024-03-02T08:02:21;5.20;4.20
6662;DHT22;3367;48.714;8.994;2024-03-02T08:04:47;5.20;29.20
6662;DHT22;3367;48.714;8.994;2024-03-02T08:07:15;5.30;1.00
6662;DHT22;3367;48.714;8.994;2024-03-02T08:09:42;5.40;1.00
6662;DHT22;3367;48.714;8.994;2024-03-02T08:12:08;5.50;1.00
6662;DHT22;3367;48.714;8.994;2024-03-02T08:14:35;5.60;1.00
6662;DHT22;3367;48.714;8.994;2024-03-02T08:17:03;5.70;1.00
6662;DHT22;3367;48.714;8.994;2024-03-02T08:19:35;6.00;1.00
6662;DHT22;3367;48.714;8.994;2024-03-02T08:22:02;6.10;1.00
6662;DHT22;3367;48.714;8.994;2024-03-02T08:24:29;6.20;1.00
6662;DHT22;3367;48.714;8.994;2024-03-02T08:26:55;6.30;1.00
6662;DHT22;3367;48.714;8.994;2024-03-02T08:29:22;6.40;99.90
6662;DHT22;3367;48.714;8.994;2024-03-02T08:31:49;6.50;1.00
6662;DHT22;3367;48.714;8.994;2024-03-02T08:34:17;6.60;1.00
6662;DHT22;3367;48.714;8.994;2024-03-02T08:36:44;6.70;1.00
6662;DHT22;3367;48.714;8.994;2024-03-02T08:39:10;6.80;1.00
6662;DHT22;3367;48.714;8.994;2024-03-02T08:41:41;6.90;1.00
6662;DHT22;3367;48.714;8.994;2024-03-02T08:44:07;7.00;99.90
6662;DHT22;3367;48.714;8.994;2024-03-02T08:46:34;7.10;99.90
6662;DHT22;3367;48.714;8.994;2024-03-02T08:49:01;7.10;99.90
6662;DHT22;3367;48.714;8.994;2024-03-02T08:51:29;7.20;99.90
6662;DHT22;3367;48.714;8.994;2024-03-02T08:53:56;7.30;99.90
6662;DHT22;3367;48.714;8.994;2024-03-02T08:56:23;7.40;99.90
6662;DHT22;3367;48.714;8.994;2024-03-02T08:58:50;7.50;99.90
6662;DHT22;3367;48.714;8.994;2024-03-02T09:01:17;7.60;99.90
6662;DHT22;3367;48.714;8.994;2024-03-02T09:03:45;7.70;94.40
6662;DHT22;3367;48.714;8.994;2024-03-02T09:06:11;7.80;63.30
6662;DHT22;3367;48.714;8.994;2024-03-02T09:08:40;7.80;1.00
6662;DHT22;3367;48.714;8.994;2024-03-02T09:11:07;7.90;1.40
6662;DHT22;3367;48.714;8.994;2024-03-02T09:13:34;8.00;1.00
6662;DHT22;3367;48.714;8.994;2024-03-02T09:16:01;8.10;1.00
6662;DHT22;3367;48.714;8.994;2024-03-02T09:18:28;8.20;1.00
6662;DHT22;3367;48.714;8.994;2024-03-02T09:21:02;8.30;1.00
6662;DHT22;3367;48.714;8.994;2024-03-02T09:23:32;8.40;1.00
6662;DHT22;3367;48.714;8.994;2024-03-02T09:26:02;8.50;1.00
6662;DHT22;3367;48.714;8.994;2024-03-02T09:28:35;8.60;1.00
6662;DHT22;3367;48.714;8.994;2024-03-02T09:31:02;8.60;1.00
6662;DHT22;3367;48.714;8.994;2024-03-02T09:33:32;8.70;1.00
6662;DHT22;3367;48.714;8.994;2024-03-02T09:35:59;8.80;1.00
6662;DHT22;3367;48.714;8.994;2024-03-02T09:38:25;9.00;1.00
6662;DHT22;3367;48.714;8.994;2024-03-02T09:40:52;9.20;99.90
6662;DHT22;3367;48.714;8.994;2024-03-02T09:43:20;9.30;99.90
6662;DHT22;3367;48.714;8.994;2024-03-02T09:45:59;9.50;99.90
6662;DHT22;3367;48.714;8.994;2024-03-02T09:48:26;9.70;99.90
6662;DHT22;3367;48.714;8.994;2024-03-02T09:50:53;9.90;1.00
6662;DHT22;3367;48.714;8.994;2024-03-02T09:53:20;10.10;1.00
6662;DHT22;3367;48.714;8.994;2024-03-02T09:55:48;10.20;1.00
6662;DHT22;3367;48.714;8.994;2024-03-02T09:58:14;10.30;1.00
6662;DHT22;3367;48.714;8.994;2024-03-02T10:00:42;10.40;1.00
6662;DHT22;3367;48.714;8.994;2024-03-02T10:03:12;10.40;1.00
6662;DHT22;3367;48.714;8.994;2024-03-02T10:05:38;10.50;1.00
6662;DHT22;3367;48.714;8.994;2024-03-02T10:08:05;10.60;1.00
6662;DHT22;3367;48.714;8.994;2024-03-02T10:10:37;10.80;1.00
6662;DHT22;3367;48.714;8.994;2024-03-02T10:13:08;10.80;1.00
6662;DHT22;3367;48.714;8.994;2024-03-02T10:15:36;10.80;1.00
6662;DHT22;3367;48.714;8.994;2024-03-02T10:18:05;10.90;1.00
6662;DHT22;3367;48.714;8.994;2024-03-02T10:20:34;10.90;1.00
6662;DHT22;3367;48.714;8.994;2024-03-02T10:23:11;10.90;1.00
6662;DHT22;3367;48.714;8.994;2024-03-02T10:25:43;11.00;1.00
6662;DHT22;3367;48.714;8.994;2024-03-02T10:28:16;11.20;1.00
6662;DHT22;3367;48.714;8.994;2024-03-02T10:30:43;11.20;1.00
6662;DHT22;3367;48.714;8.994;2024-03-02T10:33:15;11.40;1.00
6662;DHT22;3367;48.714;8.994;2024-03-02T10:35:50;11.60;1.00
6662;DHT22;3367;48.714;8.994;2024-03-02T10:38:17;11.60;1.00
6662;DHT22;3367;48.714;8.994;2024-03-02T10:40:47;11.70;1.00
6662;DHT22;3367;48.714;8.994;2024-03-02T10:43:26;11.80;1.00
6662;DHT22;3367;48.714;8.994;2024-03-02T10:45:54;11.90;1.00
6662;DHT22;3367;48.714;8.994;2024-03-02T10:48:30;11.90;1.00
6662;DHT22;3367;48.714;8.994;2024-03-02T10:50:57;12.00;1.00
6662;DHT22;3367;48.714;8.994;2024-03-02T10:53:27;12.10;1.00
6662;DHT22;3367;48.714;8.994;2024-03-02T10:55:58;12.30;1.00
6662;DHT22;3367;48.714;8.994;2024-03-02T10:58:32;12.20;1.00
6662;DHT22;3367;48.714;8.994;2024-03-02T11:01:02;12.30;1.00
6662;DHT22;3367;48.714;8.994;2024-03-02T11:03:39;12.30;1.00
6662;DHT22;3367;48.714;8.994;2024-03-02T11:06:08;12.40;1.00
6662;DHT22;3367;48.714;8.994;2024-03-02T11:08:47;12.50;1.00
6662;DHT22;3367;48.714;8.994;2024-03-02T11:11:15;12.70;1.00
6662;DHT22;3367;48.714;8.994;2024-03-02T11:13:49;12.70;1.00
6662;DHT22;3367;48.714;8.994;2024-03-02T11:16:31;12.70;1.00
6662;DHT22;3367;48.714;8.994;2024-03-02T11:19:03;12.70;1.00
6662;DHT22;3367;48.714;8.994;2024-03-02T11:21:32;12.70;1.00
6662;DHT22;3367;48.714;8.994;2024-03-02T11:23:59;12.70;1.00
6662;DHT22;3367;48.714;8.994;2024-03-02T11:26:38;12.70;1.00
6662;DHT22;3367;48.714;8.994;2024-03-02T11:29:05;12.90;1.00
6662;DHT22;3367;48.714;8.994;2024-03-02T11:31:57;12.80;1.00
6662;DHT22;3367;48.714;8.994;2024-03-02T11:34:30;12.60;1.00
6662;DHT22;3367;48.714;8.994;2024-03-02T11:37:00;12.60;1.00
6662;DHT22;3367;48.714;8.994;2024-03-02T11:39:28;12.60;1.00
6662;DHT22;3367;48.714;8.994;2024-03-02T11:41:58;12.60;1.00
6662;DHT22;3367;48.714;8.994;2024-03-02T11:44:25;12.60;1.00
6662;DHT22;3367;48.714;8.994;2024-03-02T11:46:59;12.70;1.00
6662;DHT22;3367;48.714;8.994;2024-03-02T11:49:40;12.90;1.00
6662;DHT22;3367;48.714;8.994;2024-03-02T11:52:08;13.00;1.00
6662;DHT22;3367;48.714;8.994;2024-03-02T11:54:37;13.00;1.00
6662;DHT22;3367;48.714;8.994;2024-03-02T11:57:06;13.10;1.00
6662;DHT22;3367;48.714;8.994;2024-03-02T11:59:35;13.20;1.00
6662;DHT22;3367;48.714;8.994;2024-03-02T12:02:02;13.40;1.00
6662;DHT22;3367;48.714;8.994;2024-03-02T12:04:29;13.40;1.00
6662;DHT22;3367;48.714;8.994;2024-03-02T12:06:59;13.40;1.00
6662;DHT22;3367;48.714;8.994;2024-03-02T12:09:27;13.50;1.00
6662;DHT22;3367;48.714;8.994;2024-03-02T12:12:04;13.70;1.00
6662;DHT22;3367;48.714;8.994;2024-03-02T12:14:36;13.80;1.00
6662;DHT22;3367;48.714;8.994;2024-03-02T12:17:04;13.90;1.00
6662;DHT22;3367;48.714;8.994;2024-03-02T12:19:32;13.70;1.00
6662;DHT22;3367;48.714;8.994;2024-03-02T12:22:00;13.80;1.00
6662;DHT22;3367;48.714;8.994;2024-03-02T12:24:30;13.80;1.00
6662;DHT22;3367;48.714;8.994;2024-03-02T12:26:57;13.70;1.00
6662;DHT22;3367;48.714;8.994;2024-03-02T12:29:24;13.70;1.00
6662;DHT22;3367;48.714;8.994;2024-03-02T12:31:52;13.90;1.00
6662;DHT22;3367;48.714;8.994;2024-03-02T12:34:19;14.10;1.00
6662;DHT22;3367;48.714;8.994;2024-03-02T12:36:46;14.20;1.00
6662;DHT22;3367;48.714;8.994;2024-03-02T12:39:16;14.20;1.00
6662;DHT22;3367;48.714;8.994;2024-03-02T12:41:46;14.10;1.00
6662;DHT22;3367;48.714;8.994;2024-03-02T12:44:18;14.10;1.00
6662;DHT22;3367;48.714;8.994;2024-03-02T12:46:47;14.10;1.00
6662;DHT22;3367;48.714;8.994;2024-03-02T12:49:15;14.10;1.00
6662;DHT22;3367;48.714;8.994;2024-03-02T12:51:43;14.20;1.00
6662;DHT22;3367;48.714;8.994;2024-03-02T12:54:12;14.20;1.00
6662;DHT22;3367;48.714;8.994;2024-03-02T12:56:40;14.20;1.00
6662;DHT22;3367;48.714;8.994;2024-03-02T12:59:17;14.20;1.00
6662;DHT22;3367;48.714;8.994;2024-03-02T13:01:53;14.30;1.00
6662;DHT22;3367;48.714;8.994;2024-03-02T13:04:23;14.40;1.00
6662;DHT22;3367;48.714;8.994;2024-03-02T13:06:56;14.30;1.00
6662;DHT22;3367;48.714;8.994;2024-03-02T13:09:29;14.20;1.00
6662;DHT22;3367;48.714;8.994;2024-03-02T13:11:58;14.20;1.00
6662;DHT22;3367;48.714;8.994;2024-03-02T13:14:25;14.30;1.00
6662;DHT22;3367;48.714;8.994;2024-03-02T13:16:52;14.40;1.00
6662;DHT22;3367;48.714;8.994;2024-03-02T13:19:22;14.30;1.00
6662;DHT22;3367;48.714;8.994;2024-03-02T13:21:48;14.30;1.00
6662;DHT22;3367;48.714;8.994;2024-03-02T13:24:19;14.40;1.00
6662;DHT22;3367;48.714;8.994;2024-03-02T13:26:46;14.40;1.00
6662;DHT22;3367;48.714;8.994;2024-03-02T13:29:14;14.30;1.00
6662;DHT22;3367;48.714;8.994;2024-03-02T13:31:41;14.20;1.00
6662;DHT22;3367;48.714;8.994;2024-03-02T13:34:07;14.10;1.00
6662;DHT22;3367;48.714;8.994;2024-03-02T13:36:34;13.90;1.00
6662;DHT22;3367;48.714;8.994;2024-03-02T13:39:09;13.70;1.00
6662;DHT22;3367;48.714;8.994;2024-03-02T13:41:36;13.70;1.00
6662;DHT22;3367;48.714;8.994;2024-03-02T13:44:03;13.60;1.00
6662;DHT22;3367;48.714;8.994;2024-03-02T13:46:31;13.50;1.00
6662;DHT22;3367;48.714;8.994;2024-03-02T13:48:59;13.40;1.00
6662;DHT22;3367;48.714;8.994;2024-03-02T13:51:30;13.40;1.00
6662;DHT22;3367;48.714;8.994;2024-03-02T13:53:58;13.20;1.00
6662;DHT22;3367;48.714;8.994;2024-03-02T13:56:28;13.20;1.00
6662;DHT22;3367;48.714;8.994;2024-03-02T13:58:55;13.20;1.00
6662;DHT22;3367;48.714;8.994;2024-03-02T14:01:22;13.10;1.00
6662;DHT22;3367;48.714;8.994;2024-03-02T14:03:53;13.10;1.00
6662;DHT22;3367;48.714;8.994;2024-03-02T14:06:39;13.00;1.00
6662;DHT22;3367;48.714;8.994;2024-03-02T14:09:08;13.10;1.00
6662;DHT22;3367;48.714;8.994;2024-03-02T14:11:37;13.20;1.00
6662;DHT22;3367;48.714;8.994;2024-03-02T14:14:04;13.30;1.00
6662;DHT22;3367;48.714;8.994;2024-03-02T14:16:34;13.30;1.00
6662;DHT22;3367;48.714;8.994;2024-03-02T14:19:02;13.40;1.00
6662;DHT22;3367;48.714;8.994;2024-03-02T14:21:30;13.50;1.00
6662;DHT22;3367;48.714;8.994;2024-03-02T14:24:00;13.60;1.00
6662;DHT22;3367;48.714;8.994;2024-03-02T14:26:27;13.70;1.00
6662;DHT22;3367;48.714;8.994;2024-03-02T14:28:54;13.80;1.00
6662;DHT22;3367;48.714;8.994;2024-03-02T14:31:21;13.80;1.00
6662;DHT22;3367;48.714;8.994;2024-03-02T14:33:50;13.90;1.00
6662;DHT22;3367;48.714;8.994;2024-03-02T14:36:19;13.90;1.00
6662;DHT22;3367;48.714;8.994;2024-03-02T14:38:52;13.90;1.00
6662;DHT22;3367;48.714;8.994;2024-03-02T14:41:22;13.90;1.00
6662;DHT22;3367;48.714;8.994;2024-03-02T14:43:52;13.80;1.00
6662;DHT22;3367;48.714;8.994;2024-03-02T14:46:19;13.80;1.00
6662;DHT22;3367;48.714;8.994;2024-03-02T14:48:52;13.90;1.00
6662;DHT22;3367;48.714;8.994;2024-03-02T14:51:20;13.90;1.00
6662;DHT22;3367;48.714;8.994;2024-03-02T14:53:50;13.80;1.00
6662;DHT22;3367;48.714;8.994;2024-03-02T14:56:24;13.90;1.00
6662;DHT22;3367;48.714;8.994;2024-03-02T14:58:51;13.90;1.00
6662;DHT22;3367;48.714;8.994;2024-03-02T15:01:19;13.90;1.00
6662;DHT22;3367;48.714;8.994;2024-03-02T15:03:48;13.90;1.00
6662;DHT22;3367;48.714;8.994;2024-03-02T15:06:15;13.80;1.00
6662;DHT22;3367;48.714;8.994;2024-03-02T15:08:52;13.90;1.00
6662;DHT22;3367;48.714;8.994;2024-03-02T15:11:29;13.80;1.00
6662;DHT22;3367;48.714;8.994;2024-03-02T15:13:56;13.80;1.00
6662;DHT22;3367;48.714;8.994;2024-03-02T15:16:24;13.80;1.00
6662;DHT22;3367;48.714;8.994;2024-03-02T15:18:51;13.90;1.00
6662;DHT22;3367;48.714;8.994;2024-03-02T15:21:18;13.80;1.00
6662;DHT22;3367;48.714;8.994;2024-03-02T15:23:48;13.80;1.00
6662;DHT22;3367;48.714;8.994;2024-03-02T15:26:18;13.60;1.00
6662;DHT22;3367;48.714;8.994;2024-03-02T15:28:51;13.60;1.00
6662;DHT22;3367;48.714;8.994;2024-03-02T15:31:21;13.50;1.00
6662;DHT22;3367;48.714;8.994;2024-03-02T15:33:48;13.50;1.00
6662;DHT22;3367;48.714;8.994;2024-03-02T15:36:15;13.40;1.00
6662;DHT22;3367;48.714;8.994;2024-03-02T15:38:42;13.40;1.00
6662;DHT22;3367;48.714;8.994;2024-03-02T15:41:09;13.30;1.00
6662;DHT22;3367;48.714;8.994;2024-03-02T15:43:40;13.30;1.00
6662;DHT22;3367;48.714;8.994;2024-03-02T15:46:08;13.30;1.00
6662;DHT22;3367;48.714;8.994;2024-03-02T15:48:35;13.30;1.00
6662;DHT22;3367;48.714;8.994;2024-03-02T15:51:07;13.30;1.00
6662;DHT22;3367;48.714;8.994;2024-03-02T15:53:35;13.30;1.00
6662;DHT22;3367;48.714;8.994;2024-03-02T15:56:03;13.30;1.00
6662;DHT22;3367;48.714;8.994;2024-03-02T15:58:30;13.20;1.00
6662;DHT22;3367;48.714;8.994;2024-03-02T16:01:01;13.20;1.00
6662;DHT22;3367;48.714;8.994;2024-03-02T16:03:28;13.10;1.00
6662;DHT22;3367;48.714;8.994;2024-03-02T16:06:01;13.20;1.00
6662;DHT22;3367;48.714;8.994;2024-03-02T16:08:28;13.10;1.00
6662;DHT22;3367;48.714;8.994;2024-03-02T16:10:58;13.10;1.00
6662;DHT22;3367;48.714;8.994;2024-03-02T16:13:25;13.00;1.00
6662;DHT22;3367;48.714;8.994;2024-03-02T16:15:51;13.00;1.00
6662;DHT22;3367;48.714;8.994;2024-03-02T16:18:19;12.90;1.00
6662;DHT22;3367;48.714;8.994;2024-03-02T16:20:46;12.80;1.00
6662;DHT22;3367;48.714;8.994;2024-03-02T16:23:13;12.90;1.00
6662;DHT22;3367;48.714;8.994;2024-03-02T16:25:39;12.70;1.00
6662;DHT22;3367;48.714;8.994;2024-03-02T16:28:07;12.70;1.00
6662;DHT22;3367;48.714;8.994;2024-03-02T16:30:34;12.60;1.00
6662;DHT22;3367;48.714;8.994;2024-03-02T16:33:01;12.60;1.00
6662;DHT22;3367;48.714;8.994;2024-03-02T16:35:29;12.40;1.00
6662;DHT22;3367;48.714;8.994;2024-03-02T16:37:55;12.50;1.00